Time;durP1;ratioP1;P1;durP2;ratioP2;P2;SDS_P1;SDS_P2;PMS_P1;PMS_P2;Temp;Humidity;BMP_temperature;BMP_pressure;BME280_temperature;BME280_humidity;BME280_pressure;Samples;Min_cycle;Max_cycle;Signal;HPM_P1;HPM_P2
2021/04/16 00:01:27;;;;;;;7.45;2.90;;;11.70;35.70;;;;;;6205864;28;20057;-79
2021/04/16 00:04:28;;;;;;;6.82;2.90;;;11.70;35.70;;;;;;6193705;28;20034;-77
2021/04/16 00:07:29;;;;;;;4.03;2.25;;;11.80;35.70;;;;;;6226952;28;20026;-77
2021/04/16 00:10:37;;;;;;;5.43;2.85;;;11.80;35.80;;;;;;6210136;28;20018;-78
2021/04/16 00:13:39;;;;;;;8.98;2.67;;;11.80;35.90;;;;;;6193208;28;20026;-79
2021/04/16 00:16:40;;;;;;;6.05;2.45;;;11.70;35.80;;;;;;6226674;28;20033;-79
2021/04/16 00:19:41;;;;;;;5.25;2.53;;;11.70;36.00;;;;;;6193200;28;20029;-77
2021/04/16 00:22:42;;;;;;;9.07;2.50;;;11.60;36.10;;;;;;6209460;28;20104;-78
2021/04/16 00:25:43;;;;;;;4.40;2.70;;;11.60;36.30;;;;;;6209125;28;20076;-78
2021/04/16 00:28:44;;;;;;;13.60;2.60;;;11.50;36.40;;;;;;6192675;28;20034;-78
2021/04/16 00:31:51;;;;;;;3.72;2.22;;;11.50;36.50;;;;;;6193457;28;20033;-77
2021/04/16 00:34:52;;;;;;;4.25;2.17;;;11.40;36.50;;;;;;6226458;28;20034;-80
2021/04/16 00:37:53;;;;;;;5.15;2.45;;;11.40;36.60;;;;;;6208821;28;20386;-78
2021/04/16 00:40:57;;;;;;;8.77;2.63;;;11.30;36.70;;;;;;6210204;28;20447;-79
2021/04/16 00:43:58;;;;;;;3.85;1.92;;;11.30;36.70;;;;;;6197279;28;20129;-79
2021/04/16 00:47:07;;;;;;;6.20;2.47;;;11.20;37.00;;;;;;6213707;28;20371;-78
2021/04/16 00:50:17;;;;;;;7.60;2.92;;;11.20;37.10;;;;;;6199554;28;20091;-78
2021/04/16 00:53:20;;;;;;;4.65;2.30;;;11.20;37.10;;;;;;6213840;28;20026;-78
2021/04/16 00:56:21;;;;;;;3.97;2.67;;;11.10;37.20;;;;;;6197392;28;20030;-79
2021/04/16 00:59:27;;;;;;;4.70;2.40;;;11.10;37.30;;;;;;6188345;28;20026;-79
2021/04/16 01:02:36;;;;;;;6.40;3.00;;;11.00;37.40;;;;;;6181222;28;20078;-80
2021/04/16 01:05:36;;;;;;;3.53;2.42;;;11.00;37.30;;;;;;6181148;28;20081;-78
2021/04/16 01:08:38;;;;;;;4.75;2.53;;;10.90;37.20;;;;;;6181198;28;20027;-77
2021/04/16 01:11:39;;;;;;;9.35;2.83;;;11.00;37.40;;;;;;6181647;28;20027;-78
2021/04/16 01:14:42;;;;;;;9.70;2.50;;;11.00;37.40;;;;;;6164668;28;20042;-78
2021/04/16 01:17:47;;;;;;;5.22;2.38;;;11.00;37.30;;;;;;6182066;28;20061;-79
2021/04/16 01:20:51;;;;;;;4.68;2.40;;;11.00;37.30;;;;;;6189548;28;20101;-79
2021/04/16 01:23:57;;;;;;;7.15;2.83;;;11.00;37.40;;;;;;6205107;28;20054;-78
2021/04/16 01:26:59;;;;;;;4.22;2.40;;;11.00;37.30;;;;;;6189165;28;20161;-79
2021/04/16 01:30:13;;;;;;;5.20;2.58;;;11.00;37.40;;;;;;6204766;28;20023;-79
2021/04/16 01:33:14;;;;;;;7.57;2.53;;;10.90;37.50;;;;;;6188882;28;20057;-80
2021/04/16 01:36:24;;;;;;;5.30;2.78;;;10.90;37.40;;;;;;6205221;28;20345;-80
2021/04/16 01:39:27;;;;;;;5.65;2.50;;;10.90;37.30;;;;;;6188797;28;20042;-79
2021/04/16 01:42:28;;;;;;;4.40;2.33;;;10.90;37.50;;;;;;6188407;28;20092;-79
2021/04/16 01:45:29;;;;;;;6.93;2.40;;;10.80;37.50;;;;;;6205002;28;20411;-78
2021/04/16 01:48:36;;;;;;;4.32;2.17;;;10.80;37.60;;;;;;6204780;28;20449;-79
2021/04/16 01:51:37;;;;;;;4.38;2.78;;;10.80;37.80;;;;;;6205151;28;20038;-79
2021/04/16 01:54:51;;;;;;;9.93;3.13;;;10.80;37.90;;;;;;6204909;28;20096;-78
2021/04/16 01:57:52;;;;;;;6.15;2.50;;;10.70;38.20;;;;;;6187572;28;20026;-78
2021/04/16 02:00:54;;;;;;;7.22;2.72;;;10.70;38.20;;;;;;6204746;28;20033;-78
2021/04/16 02:03:55;;;;;;;3.95;2.38;;;10.60;38.20;;;;;;6203943;28;20137;-78
2021/04/16 02:06:56;;;;;;;7.00;2.50;;;10.50;38.40;;;;;;6204959;28;20329;-78
2021/04/16 02:09:57;;;;;;;2.63;1.92;;;10.40;38.60;;;;;;6204144;28;20423;-78
2021/04/16 02:12:58;;;;;;;4.90;2.35;;;10.30;38.90;;;;;;6187312;28;20049;-77
2021/04/16 02:15:58;;;;;;;7.45;1.67;;;10.20;39.20;;;;;;6203737;28;20030;-78
2021/04/16 02:18:59;;;;;;;3.70;2.25;;;10.20;39.30;;;;;;6171464;28;20137;-77
2021/04/16 02:22:01;;;;;;;6.22;2.45;;;10.10;39.60;;;;;;6203825;28;20026;-77
2021/04/16 02:25:02;;;;;;;4.82;2.65;;;10.00;39.80;;;;;;6203825;28;20038;-78
2021/04/16 02:28:04;;;;;;;9.55;2.38;;;9.90;40.00;;;;;;6192212;28;20034;-79
2021/04/16 02:31:10;;;;;;;6.95;2.80;;;9.80;40.40;;;;;;6228014;28;20029;-81
2021/04/16 02:34:26;;;;;;;8.35;2.70;;;9.70;40.60;;;;;;6211333;28;20440;-79
2021/04/16 02:37:28;;;;;;;3.88;2.05;;;9.60;40.70;;;;;;6211564;28;20049;-79
2021/04/16 02:40:29;;;;;;;5.50;2.55;;;9.60;40.90;;;;;;6222292;28;20122;-79
2021/04/16 02:43:30;;;;;;;11.82;2.90;;;9.60;41.00;;;;;;6202377;28;20030;-78
2021/04/16 02:46:32;;;;;;;9.50;2.28;;;9.60;41.00;;;;;;6206117;28;20034;-79
2021/04/16 02:49:33;;;;;;;6.00;2.50;;;9.60;41.10;;;;;;6204490;28;20439;-78
2021/04/16 02:52:34;;;;;;;5.30;2.78;;;9.60;41.20;;;;;;6203337;28;20030;-80
2021/04/16 02:55:36;;;;;;;3.22;2.15;;;9.50;41.50;;;;;;6186832;28;20049;-78
2021/04/16 02:58:37;;;;;;;4.85;2.55;;;9.50;41.60;;;;;;6202328;28;20077;-78
2021/04/16 03:01:38;;;;;;;4.43;2.35;;;9.40;41.70;;;;;;6208354;28;20049;-78
2021/04/16 03:04:40;;;;;;;5.40;2.53;;;9.40;41.90;;;;;;6209943;28;20041;-78
2021/04/16 03:07:41;;;;;;;6.38;2.88;;;9.30;42.00;;;;;;6228000;28;20025;-78
2021/04/16 03:10:42;;;;;;;6.10;2.75;;;9.30;42.00;;;;;;6210426;28;20506;-78
2021/04/16 03:13:43;;;;;;;8.82;3.30;;;9.20;42.20;;;;;;6210096;28;20030;-78
2021/04/16 03:16:44;;;;;;;4.07;2.35;;;9.10;42.20;;;;;;6210579;28;20332;-78
2021/04/16 03:19:44;;;;;;;5.25;2.50;;;9.10;42.50;;;;;;6210599;28;20447;-78
2021/04/16 03:22:45;;;;;;;6.60;2.72;;;9.10;42.60;;;;;;6210243;28;20026;-79
2021/04/16 03:25:46;;;;;;;5.40;2.80;;;9.00;42.80;;;;;;6210158;28;20029;-78
2021/04/16 03:28:55;;;;;;;6.70;2.58;;;9.00;43.00;;;;;;6209777;28;20443;-78
2021/04/16 03:31:56;;;;;;;4.85;2.50;;;8.90;43.40;;;;;;6210013;28;20022;-78
2021/04/16 03:34:57;;;;;;;4.45;2.67;;;8.80;43.60;;;;;;6226665;28;20336;-78
2021/04/16 03:46:42;;;;;;;5.75;2.58;;;8.70;44.20;;;;;;6212677;28;20400;-77
2021/04/16 03:49:46;;;;;;;6.55;2.80;;;8.60;44.10;;;;;;6210202;28;20084;-77
2021/04/16 03:52:47;;;;;;;12.93;2.83;;;8.60;44.20;;;;;;6209946;28;20033;-78
2021/04/16 03:55:48;;;;;;;3.85;2.47;;;8.60;44.50;;;;;;6209935;28;20048;-78
2021/04/16 03:58:49;;;;;;;6.38;2.85;;;8.50;44.50;;;;;;6209144;28;20122;-78
2021/04/16 04:01:51;;;;;;;6.13;2.97;;;8.50;44.60;;;;;;6226809;28;20475;-79
2021/04/16 04:04:52;;;;;;;4.30;2.83;;;8.50;44.80;;;;;;6209559;28;20408;-77
2021/04/16 04:07:53;;;;;;;4.60;2.45;;;8.40;44.90;;;;;;6209806;28;20030;-79
2021/04/16 04:10:55;;;;;;;7.18;3.10;;;8.40;45.00;;;;;;6193544;28;20530;-78
2021/04/16 04:13:57;;;;;;;3.83;2.80;;;8.40;45.20;;;;;;6209173;28;20041;-79
2021/04/16 04:17:02;;;;;;;5.97;2.88;;;8.40;45.30;;;;;;6193354;28;20454;-79
2021/04/16 04:20:11;;;;;;;9.90;2.80;;;8.30;45.30;;;;;;6209492;28;20093;-78
2021/04/16 04:23:12;;;;;;;6.90;2.80;;;8.30;45.50;;;;;;6226801;28;20026;-78
2021/04/16 04:26:13;;;;;;;8.43;2.65;;;8.30;45.80;;;;;;6193041;28;20026;-77
2021/04/16 04:29:17;;;;;;;4.05;2.60;;;8.20;45.90;;;;;;6192757;28;20040;-79
2021/04/16 04:32:18;;;;;;;5.22;2.53;;;8.20;46.20;;;;;;6192971;28;20026;-77
2021/04/16 04:35:20;;;;;;;6.18;3.10;;;8.20;46.30;;;;;;6227458;28;20076;-78
2021/04/16 04:38:21;;;;;;;4.10;2.38;;;8.10;46.40;;;;;;6192480;28;20033;-78
2021/04/16 04:41:22;;;;;;;4.22;2.80;;;8.10;46.60;;;;;;6192741;28;20033;-79
2021/04/16 04:44:23;;;;;;;5.93;2.63;;;8.00;46.70;;;;;;6209114;28;20061;-78
2021/04/16 04:47:24;;;;;;;5.88;2.97;;;8.00;46.80;;;;;;6211482;28;20030;-78
2021/04/16 04:50:27;;;;;;;3.05;2.45;;;8.00;46.80;;;;;;6209015;28;20460;-80
2021/04/16 04:53:29;;;;;;;5.70;2.67;;;8.00;46.90;;;;;;6225872;28;20026;-79
2021/04/16 04:56:30;;;;;;;4.65;2.97;;;7.90;47.00;;;;;;6208354;28;20092;-78
2021/04/16 04:59:33;;;;;;;4.53;2.50;;;7.90;46.80;;;;;;6226080;28;20118;-78
2021/04/16 05:02:34;;;;;;;7.13;2.80;;;7.90;46.80;;;;;;6192847;28;20060;-78
2021/04/16 05:05:35;;;;;;;12.90;3.42;;;7.90;46.80;;;;;;6208878;28;20058;-78
2021/04/16 05:08:35;;;;;;;7.95;3.45;;;8.00;46.70;;;;;;6190904;28;20030;-78
2021/04/16 05:11:36;;;;;;;16.88;2.72;;;8.00;46.80;;;;;;6204386;28;20453;-78
2021/04/16 05:14:37;;;;;;;6.00;2.63;;;7.90;46.80;;;;;;6208609;28;20463;-78
2021/04/16 05:17:38;;;;;;;5.63;2.97;;;7.90;46.90;;;;;;6208829;28;20042;-78
2021/04/16 05:20:39;;;;;;;9.25;3.25;;;7.90;46.90;;;;;;6208975;28;20030;-78
2021/04/16 05:23:40;;;;;;;5.30;3.15;;;7.90;47.10;;;;;;6208373;28;20490;-78
2021/04/16 05:26:41;;;;;;;6.03;2.50;;;7.90;47.20;;;;;;6225763;28;20030;-78
2021/04/16 05:29:42;;;;;;;3.45;2.15;;;7.90;47.40;;;;;;6206611;28;20034;-79
2021/04/16 05:32:45;;;;;;;5.38;3.03;;;7.80;47.60;;;;;;6212818;28;20073;-78
2021/04/16 05:35:46;;;;;;;12.35;2.97;;;7.80;47.70;;;;;;6212258;28;20040;-78
2021/04/16 05:38:47;;;;;;;8.80;3.17;;;7.70;47.90;;;;;;6211902;28;20029;-80
2021/04/16 05:41:48;;;;;;;7.35;3.45;;;7.70;48.10;;;;;;6211877;28;20069;-79
2021/04/16 05:44:49;;;;;;;5.32;2.78;;;7.70;48.00;;;;;;6195868;28;20106;-78
2021/04/16 05:47:50;;;;;;;11.65;3.40;;;7.60;48.00;;;;;;6211833;28;20034;-79
2021/04/16 05:50:51;;;;;;;5.00;2.55;;;7.60;48.20;;;;;;6229339;28;20348;-78
2021/04/16 05:53:52;;;;;;;5.88;2.97;;;7.60;48.20;;;;;;6229785;28;20026;-78
2021/04/16 05:56:53;;;;;;;6.85;2.70;;;7.60;48.30;;;;;;6229740;28;20455;-78
2021/04/16 05:59:55;;;;;;;8.20;3.20;;;7.60;48.40;;;;;;6195308;28;20029;-78
2021/04/16 06:02:56;;;;;;;9.23;3.25;;;7.60;48.40;;;;;;6195943;28;20041;-78
2021/04/16 06:05:58;;;;;;;6.55;2.97;;;7.60;48.30;;;;;;6195900;28;20033;-79
2021/04/16 06:08:59;;;;;;;5.43;3.00;;;7.60;48.30;;;;;;6212044;28;20045;-77
2021/04/16 06:12:01;;;;;;;5.15;2.72;;;7.60;48.20;;;;;;6196050;28;20026;-79
2021/04/16 06:15:07;;;;;;;11.18;3.60;;;7.60;48.20;;;;;;6221369;28;20081;-77
2021/04/16 06:18:08;;;;;;;6.43;3.28;;;7.60;48.20;;;;;;6220916;28;20447;-77
2021/04/16 06:21:11;;;;;;;6.55;3.58;;;7.60;48.50;;;;;;6211825;28;20033;-79
2021/04/16 06:24:12;;;;;;;6.95;3.08;;;7.60;48.60;;;;;;6194361;28;20041;-80
2021/04/16 06:27:13;;;;;;;6.70;3.28;;;7.60;48.60;;;;;;6195859;28;20087;-80
2021/04/16 06:30:16;;;;;;;5.18;3.05;;;7.60;48.50;;;;;;6196669;28;20104;-78
2021/04/16 06:33:34;;;;;;;6.90;3.67;;;7.70;48.60;;;;;;6188773;28;20093;-78
2021/04/16 06:36:35;;;;;;;7.93;3.38;;;7.70;48.50;;;;;;6179590;28;20044;-80
2021/04/16 06:39:36;;;;;;;12.88;3.28;;;7.80;48.30;;;;;;6195231;28;20038;-79
2021/04/16 06:42:37;;;;;;;13.45;3.72;;;7.70;48.40;;;;;;6216171;28;20029;-76
2021/04/16 06:45:38;;;;;;;24.95;3.75;;;7.80;48.40;;;;;;6186507;28;20034;-80
2021/04/16 06:48:40;;;;;;;10.43;3.38;;;7.80;48.40;;;;;;6203031;28;20341;-79
2021/04/16 06:52:13;;;;;;;8.80;3.53;;;7.90;48.50;;;;;;6186286;28;20034;-78
2021/04/16 06:55:29;;;;;;;14.10;3.85;;;7.90;48.30;;;;;;6183915;28;20049;-78
2021/04/16 06:59:10;;;;;;;5.75;3.45;;;8.00;48.50;;;;;;6188835;28;20130;-79
2021/04/16 07:02:17;;;;;;;7.63;3.60;;;8.00;48.10;;;;;;6194368;28;20049;-82
2021/04/16 07:05:25;;;;;;;8.23;3.45;;;8.10;48.00;;;;;;6186119;28;20044;-76
2021/04/16 07:08:50;;;;;;;12.90;2.72;;;8.20;47.80;;;;;;6204203;28;20027;-76
2021/04/16 07:12:04;;;;;;;16.15;3.80;;;8.20;47.70;;;;;;6193889;28;20027;-76
2021/04/16 07:15:12;;;;;;;8.63;3.85;;;8.30;48.20;;;;;;6202218;28;20045;-77
2021/04/16 07:18:28;;;;;;;10.45;4.07;;;8.40;47.50;;;;;;6202530;28;20034;-78
2021/04/16 07:21:29;;;;;;;7.30;3.17;;;8.50;47.20;;;;;;6202586;28;20053;-77
2021/04/16 07:24:31;;;;;;;6.32;2.92;;;8.60;47.00;;;;;;6203490;28;20459;-77
2021/04/16 07:28:10;;;;;;;10.15;3.88;;;8.60;46.80;;;;;;6214834;28;20108;-79
2021/04/16 07:31:29;;;;;;;7.07;3.78;;;8.70;46.80;;;;;;6199918;28;20038;-77
2021/04/16 07:34:37;;;;;;;9.25;4.05;;;8.60;46.50;;;;;;6218895;28;20057;-77
2021/04/16 07:37:44;;;;;;;6.47;3.77;;;8.80;46.50;;;;;;6216895;28;20362;-77
2021/04/16 07:40:47;;;;;;;6.95;3.30;;;8.80;46.10;;;;;;6233938;28;20115;-76
2021/04/16 07:43:52;;;;;;;9.68;3.75;;;8.90;45.90;;;;;;6215024;28;20105;-76
2021/04/16 07:46:59;;;;;;;12.05;3.28;;;8.90;45.80;;;;;;6214358;28;20057;-77
2021/04/16 07:50:09;;;;;;;12.05;3.55;;;8.90;45.70;;;;;;6210186;28;20034;-77
2021/04/16 07:53:27;;;;;;;7.65;3.72;;;9.00;46.10;;;;;;6209860;28;20435;-77
2021/04/16 07:56:28;;;;;;;7.87;3.97;;;9.00;45.30;;;;;;6210172;28;20113;-77
2021/04/16 07:59:29;;;;;;;10.52;3.45;;;9.10;45.10;;;;;;6206315;28;20529;-79
2021/04/16 08:02:48;;;;;;;8.18;3.95;;;9.20;45.00;;;;;;6226216;28;20049;-77
2021/04/16 08:05:52;;;;;;;5.32;2.78;;;9.30;44.80;;;;;;6205404;28;20026;-78
2021/04/16 08:08:53;;;;;;;6.57;3.35;;;9.30;45.30;;;;;;6226227;28;20062;-80
2021/04/16 08:12:00;;;;;;;10.90;4.28;;;9.30;44.70;;;;;;6209574;28;20095;-79
2021/04/16 08:15:27;;;;;;;6.47;3.70;;;9.40;44.70;;;;;;6185951;28;20033;-81
2021/04/16 08:18:31;;;;;;;10.82;3.58;;;9.50;44.60;;;;;;6207530;28;20038;-79
2021/04/16 08:21:37;;;;;;;12.23;4.30;;;9.60;44.40;;;;;;6227515;28;20037;-80
2021/04/16 08:24:50;;;;;;;7.93;3.40;;;9.60;44.30;;;;;;6226376;28;20026;-77
2021/04/16 08:28:17;;;;;;;8.95;3.80;;;9.70;44.10;;;;;;6220380;28;20022;-77
2021/04/16 08:31:29;;;;;;;7.70;3.92;;;9.70;44.00;;;;;;6189412;28;20026;-77
2021/04/16 08:35:02;;;;;;;8.57;3.90;;;9.90;43.80;;;;;;6185276;28;20026;-77
2021/04/16 08:38:07;;;;;;;8.77;3.78;;;9.90;43.60;;;;;;6212471;28;20083;-79
2021/04/16 08:41:10;;;;;;;7.95;3.95;;;10.10;43.40;;;;;;6218044;28;20026;-78
2021/04/16 08:44:11;;;;;;;13.48;4.60;;;10.20;43.10;;;;;;6204809;28;20195;-75
2021/04/16 08:47:39;;;;;;;7.60;3.88;;;10.50;42.90;;;;;;6227985;28;20083;-75
2021/04/16 08:50:47;;;;;;;7.05;3.65;;;10.70;42.70;;;;;;6169196;28;20033;-75
2021/04/16 08:53:48;;;;;;;;;;;10.90;42.30;;;;;;6223803;28;20033;-75
2021/04/16 08:57:18;;;;;;;7.47;3.78;;;11.00;41.90;;;;;;6191012;28;19941;-75
2021/04/16 09:00:30;;;;;;;19.50;4.07;;;11.20;41.60;;;;;;6224708;28;20115;-75
2021/04/16 09:03:54;;;;;;;10.32;4.90;;;11.30;41.00;;;;;;6213578;28;20054;-76
2021/04/16 09:06:57;;;;;;;7.45;4.20;;;11.30;40.90;;;;;;6211375;28;20066;-77
2021/04/16 09:10:00;;;;;;;9.20;5.40;;;11.40;40.80;;;;;;6198116;28;20080;-75
2021/04/16 09:13:04;;;;;;;17.75;5.20;;;11.40;40.60;;;;;;6228126;28;20044;-76
2021/04/16 09:16:15;;;;;;;9.85;4.38;;;11.40;40.70;;;;;;6213419;28;20030;-76
2021/04/16 09:19:25;;;;;;;39.92;15.45;;;11.50;41.00;;;;;;6191713;28;20025;-78
2021/04/16 09:22:36;;;;;;;15.85;7.82;;;11.60;41.30;;;;;;6204752;28;20037;-76
2021/04/16 09:25:40;;;;;;;18.33;6.90;;;11.80;41.40;;;;;;6212048;28;20359;-78
2021/04/16 09:28:50;;;;;;;13.77;5.03;;;12.00;41.30;;;;;;6208935;28;20095;-79
2021/04/16 09:31:53;;;;;;;11.55;5.60;;;12.20;41.10;;;;;;6197123;28;20022;-77
2021/04/16 09:34:54;;;;;;;12.90;5.65;;;12.40;41.10;;;;;;6217407;28;20022;-78
2021/04/16 09:38:23;;;;;;;11.55;5.30;;;12.60;41.10;;;;;;6214977;28;20149;-76
2021/04/16 09:41:45;;;;;;;27.42;6.60;;;12.70;41.50;;;;;;6170892;28;20168;-78
2021/04/16 09:44:55;;;;;;;11.60;5.80;;;12.60;42.10;;;;;;6124781;29;20044;-77
2021/04/16 09:48:04;;;;;;;10.25;5.85;;;12.70;42.40;;;;;;6114908;29;20145;-77
2021/04/16 09:51:05;;;;;;;24.52;6.72;;;12.70;42.60;;;;;;6115845;29;20369;-78
2021/04/16 09:54:08;;;;;;;15.32;7.15;;;12.80;42.70;;;;;;6122066;29;20071;-77
2021/04/16 09:57:09;;;;;;;21.52;8.50;;;12.90;42.80;;;;;;6137662;29;20366;-80
2021/04/16 10:00:33;;;;;;;18.08;8.25;;;12.90;42.80;;;;;;6146099;29;20066;-78
2021/04/16 10:03:52;;;;;;;15.60;6.43;;;12.90;43.00;;;;;;6119850;29;20043;-78
2021/04/16 10:06:54;;;;;;;17.25;6.22;;;12.90;43.10;;;;;;6140596;29;20035;-79
2021/04/16 10:10:06;;;;;;;13.43;6.35;;;12.90;43.20;;;;;;6141164;29;20385;-78
2021/04/16 10:13:25;;;;;;;18.00;7.05;;;12.90;43.20;;;;;;6122814;28;20035;-79
2021/04/16 10:16:26;;;;;;;37.05;12.90;;;13.00;43.20;;;;;;6139240;29;20453;-79
2021/04/16 10:19:39;;;;;;;23.00;8.93;;;13.10;43.20;;;;;;6139168;29;20031;-79
2021/04/16 10:22:40;;;;;;;18.70;7.95;;;13.10;43.30;;;;;;6174569;28;20053;-80
2021/04/16 12:39:36;;;;;;;14.15;7.15;;;14.40;40.40;;;;;;6201750;28;20468;-79
2021/04/16 12:42:37;;;;;;;11.48;6.53;;;14.20;40.70;;;;;;6194283;28;20034;-78
2021/04/16 12:45:38;;;;;;;15.35;6.35;;;14.00;40.90;;;;;;6174958;28;20465;-79
2021/04/16 12:48:39;;;;;;;12.32;6.75;;;14.00;41.20;;;;;;6171812;28;20054;-80
2021/04/16 12:51:40;;;;;;;9.13;5.32;;;13.90;41.30;;;;;;6204381;28;20041;-78
2021/04/16 12:54:43;;;;;;;12.35;6.13;;;13.80;41.30;;;;;;6187281;28;20048;-78
2021/04/16 12:57:55;;;;;;;17.95;6.13;;;13.70;41.40;;;;;;6167335;28;20061;-78
2021/04/16 13:00:57;;;;;;;20.48;6.63;;;13.50;41.60;;;;;;6177160;28;20116;-77
2021/04/16 13:03:59;;;;;;;10.63;6.22;;;13.30;41.90;;;;;;6173014;28;20038;-77
2021/04/16 13:07:01;;;;;;;11.77;5.82;;;13.20;42.20;;;;;;6161538;28;20365;-78
2021/04/16 13:10:15;;;;;;;15.95;6.18;;;13.20;42.30;;;;;;6197826;28;20530;-78
2021/04/16 13:13:16;;;;;;;11.40;5.82;;;13.20;42.20;;;;;;6180306;28;20026;-78
2021/04/16 13:16:18;;;;;;;10.80;6.00;;;13.20;42.00;;;;;;6188151;28;20034;-77
2021/04/16 13:19:25;;;;;;;10.05;5.40;;;13.20;42.00;;;;;;6157422;28;20393;-78
2021/04/16 13:22:27;;;;;;;14.13;6.55;;;13.30;41.90;;;;;;6188210;28;20034;-78
2021/04/16 13:25:30;;;;;;;11.38;6.00;;;13.30;41.70;;;;;;6182224;28;20127;-78
2021/04/16 13:28:31;;;;;;;18.83;6.28;;;13.40;41.60;;;;;;6165558;28;20057;-77
2021/04/16 13:31:36;;;;;;;10.40;5.88;;;13.40;41.60;;;;;;6202413;28;20125;-78
2021/04/16 13:34:41;;;;;;;12.65;6.75;;;13.30;41.60;;;;;;6189074;28;20038;-78
2021/04/16 13:37:45;;;;;;;9.98;5.63;;;13.40;41.70;;;;;;6205405;28;20038;-77
2021/04/16 13:40:46;;;;;;;7.35;4.90;;;13.50;41.70;;;;;;6206391;28;20368;-78
2021/04/16 13:43:52;;;;;;;8.65;4.72;;;13.60;41.60;;;;;;6178806;28;20119;-78
2021/04/16 13:46:53;;;;;;;8.55;4.85;;;13.70;41.70;;;;;;6186133;28;20030;-78
2021/04/16 13:49:58;;;;;;;7.57;4.45;;;13.70;41.60;;;;;;6188785;28;20030;-79
2021/04/16 13:52:59;;;;;;;8.98;4.43;;;13.60;41.60;;;;;;6172660;28;20058;-78
2021/04/16 13:56:01;;;;;;;8.05;5.03;;;13.70;41.50;;;;;;6179091;28;20091;-78
2021/04/16 13:59:02;;;;;;;7.78;4.35;;;14.00;41.30;;;;;;6180976;28;20042;-78
2021/04/16 14:02:04;;;;;;;8.18;4.93;;;14.20;40.80;;;;;;6160028;28;20042;-78
2021/04/16 14:05:07;;;;;;;7.43;4.70;;;14.40;40.40;;;;;;6180271;28;20488;-77
2021/04/16 14:08:34;;;;;;;9.48;5.22;;;14.40;40.30;;;;;;6208075;28;20034;-77
2021/04/16 14:11:36;;;;;;;8.27;4.60;;;14.70;40.10;;;;;;6206713;28;22443;-79
2021/04/16 14:14:38;;;;;;;9.75;4.88;;;15.20;39.40;;;;;;6191503;28;20100;-78
2021/04/16 14:17:46;;;;;;;19.15;5.28;;;15.50;38.80;;;;;;6205470;28;20133;-79
2021/04/16 14:20:47;;;;;;;9.13;4.93;;;15.60;38.50;;;;;;6186464;28;20449;-79
2021/04/16 14:23:49;;;;;;;10.32;5.53;;;15.40;38.60;;;;;;6209530;28;20040;-78
2021/04/16 14:26:52;;;;;;;22.00;5.30;;;15.30;38.80;;;;;;6179493;28;20036;-77
2021/04/16 14:29:53;;;;;;;9.15;5.07;;;15.20;39.00;;;;;;6194026;28;20121;-77
2021/04/16 14:32:57;;;;;;;11.27;5.13;;;15.10;39.10;;;;;;6200058;28;20038;-79
2021/04/16 14:35:58;;;;;;;8.98;5.03;;;15.10;39.10;;;;;;6175560;28;20310;-77
2021/04/16 14:39:00;;;;;;;9.73;5.35;;;15.00;39.10;;;;;;6184174;28;20042;-77
2021/04/16 14:42:03;;;;;;;11.88;5.78;;;15.00;39.30;;;;;;6176159;28;20034;-77
2021/04/16 14:45:08;;;;;;;9.82;6.13;;;14.90;39.40;;;;;;6206375;28;20368;-79
2021/04/16 14:48:10;;;;;;;8.30;5.55;;;14.90;39.60;;;;;;6205683;28;20026;-78
2021/04/16 14:51:11;;;;;;;10.63;5.70;;;14.80;39.80;;;;;;6169658;28;20034;-78
2021/04/16 14:54:36;;;;;;;9.45;5.13;;;14.80;39.90;;;;;;6209702;28;20037;-78
2021/04/16 14:57:40;;;;;;;10.77;5.70;;;14.70;39.90;;;;;;6196966;28;20034;-77
2021/04/16 15:00:41;;;;;;;10.88;5.63;;;14.60;40.00;;;;;;6196093;28;20113;-79
2021/04/16 15:03:43;;;;;;;10.65;5.88;;;14.40;40.60;;;;;;6197524;28;20029;-77
2021/04/16 15:06:45;;;;;;;8.65;4.88;;;14.30;40.60;;;;;;6213002;28;20127;-77
2021/04/16 15:09:50;;;;;;;10.82;6.03;;;14.10;40.70;;;;;;6218154;28;20053;-77
2021/04/16 15:12:51;;;;;;;9.63;4.93;;;14.00;40.90;;;;;;6186774;28;20038;-77
2021/04/16 15:15:57;;;;;;;9.50;5.45;;;13.90;41.10;;;;;;6197628;28;20124;-77
2021/04/16 15:18:58;;;;;;;8.35;5.18;;;13.80;41.30;;;;;;6217225;28;20491;-77
2021/04/16 15:22:07;;;;;;;12.38;5.90;;;13.80;41.40;;;;;;6215734;28;20038;-79
2021/04/16 15:25:09;;;;;;;9.25;5.25;;;13.80;41.40;;;;;;6217007;28;20041;-77
2021/04/16 15:28:27;;;;;;;11.05;5.32;;;13.80;41.50;;;;;;6200928;28;20052;-77
2021/04/16 15:31:35;;;;;;;11.73;5.53;;;13.70;41.70;;;;;;6192313;28;20054;-79
2021/04/16 15:47:43;;;;;;;12.48;5.65;;;13.60;42.20;;;;;;6201988;28;20113;-76
2021/04/16 15:50:51;;;;;;;10.63;5.45;;;13.60;42.20;;;;;;6201299;28;20042;-78
2021/04/16 15:53:53;;;;;;;7.30;5.07;;;13.50;42.30;;;;;;6173976;28;20100;-77
2021/04/16 15:56:54;;;;;;;13.70;6.03;;;13.50;42.30;;;;;;6187421;28;20052;-78
2021/04/16 15:59:57;;;;;;;10.32;5.55;;;13.50;42.30;;;;;;6193155;28;20120;-77
2021/04/16 16:02:58;;;;;;;10.68;5.75;;;13.50;42.30;;;;;;6182492;28;20419;-78
2021/04/16 16:06:00;;;;;;;12.10;5.88;;;13.50;42.30;;;;;;6193163;28;20073;-78
2021/04/16 16:09:01;;;;;;;7.57;4.63;;;13.50;42.30;;;;;;6172471;28;20413;-77
2021/04/16 16:12:07;;;;;;;11.10;5.15;;;13.50;42.30;;;;;;6193251;28;20038;-79
2021/04/16 16:15:27;;;;;;;11.00;5.55;;;13.50;42.20;;;;;;6205639;28;20050;-78
2021/04/16 16:18:32;;;;;;;11.25;5.07;;;13.50;42.10;;;;;;6186320;28;20050;-77
2021/04/16 16:21:34;;;;;;;9.38;5.15;;;13.50;42.00;;;;;;6188919;28;20092;-78
2021/04/16 16:24:35;;;;;;;13.23;5.43;;;13.50;42.00;;;;;;6206496;28;20062;-78
2021/04/16 16:27:36;;;;;;;10.15;5.40;;;13.50;41.90;;;;;;6196114;28;20089;-80
2021/04/16 16:30:38;;;;;;;13.13;6.43;;;13.60;41.90;;;;;;6191304;28;20041;-79
2021/04/16 16:33:42;;;;;;;11.13;5.18;;;13.60;41.90;;;;;;6189680;28;20074;-77
2021/04/16 16:36:44;;;;;;;9.18;5.28;;;13.60;41.90;;;;;;6182761;28;20088;-78
2021/04/16 16:39:46;;;;;;;8.15;4.43;;;13.60;41.90;;;;;;6178494;28;20052;-79
2021/04/16 16:42:50;;;;;;;16.95;5.05;;;13.60;41.90;;;;;;6193903;28;20050;-79
2021/04/16 16:46:02;;;;;;;13.88;5.40;;;13.50;41.80;;;;;;6177216;28;20376;-78
2021/04/16 16:49:05;;;;;;;9.02;4.70;;;13.50;41.70;;;;;;6193090;28;20065;-78
2021/04/16 16:52:06;;;;;;;11.68;5.40;;;13.50;41.60;;;;;;6179544;28;20379;-78
2021/04/16 16:55:07;;;;;;;7.70;4.70;;;13.40;41.60;;;;;;6203970;28;20157;-78
2021/04/16 16:58:16;;;;;;;9.05;5.00;;;13.40;41.70;;;;;;6195378;28;20400;-78
2021/04/16 17:01:19;;;;;;;;;;;13.40;41.70;;;;;;6200613;28;20042;-77
2021/04/16 17:04:20;;;;;;;9.20;4.80;;;13.40;41.70;;;;;;6199178;28;19971;-78
2021/04/16 17:07:21;;;;;;;8.13;4.75;;;13.40;41.80;;;;;;6193136;28;20046;-77
2021/04/16 17:10:22;;;;;;;9.27;4.70;;;13.30;43.10;;;;;;6189466;28;20039;-78
2021/04/16 17:13:24;;;;;;;12.90;4.80;;;13.20;43.80;;;;;;6186836;28;20566;-78
2021/04/16 17:16:24;;;;;;;14.20;5.07;;;13.10;44.60;;;;;;6195195;28;20461;-78
2021/04/16 17:19:25;;;;;;;13.82;5.75;;;13.00;45.30;;;;;;6201483;28;20037;-78
2021/04/16 17:22:26;;;;;;;10.38;5.13;;;12.90;46.00;;;;;;6203895;28;20491;-78
2021/04/16 17:25:28;;;;;;;7.88;5.18;;;12.80;46.10;;;;;;6211041;28;20038;-78
2021/04/16 17:28:31;;;;;;;9.95;5.03;;;12.70;45.80;;;;;;6186202;28;20477;-79
2021/04/16 17:31:32;;;;;;;10.88;5.38;;;12.70;45.40;;;;;;6206034;28;20104;-78
2021/04/16 17:34:33;;;;;;;13.73;5.50;;;12.70;45.20;;;;;;6191638;28;20046;-77
2021/04/16 17:37:34;;;;;;;11.60;3.92;;;12.70;44.90;;;;;;6209348;28;20117;-78
2021/04/16 17:40:36;;;;;;;9.38;4.97;;;12.70;44.70;;;;;;6191781;28;20034;-78
2021/04/16 17:43:47;;;;;;;8.60;4.97;;;12.80;44.50;;;;;;6181815;28;20062;-78
2021/04/16 17:46:49;;;;;;;7.13;4.70;;;12.80;44.50;;;;;;6180044;28;20057;-78
2021/04/16 17:49:50;;;;;;;7.82;4.78;;;12.80;44.50;;;;;;6191345;28;20034;-78
2021/04/16 17:52:51;;;;;;;10.25;6.30;;;12.80;44.50;;;;;;6188899;28;20364;-77
2021/04/16 17:55:57;;;;;;;12.48;5.53;;;12.80;44.60;;;;;;6194607;28;20129;-80
2021/04/16 17:59:01;;;;;;;10.68;5.25;;;12.70;46.10;;;;;;6195534;28;20048;-78
2021/04/16 18:02:02;;;;;;;9.50;5.20;;;12.70;46.30;;;;;;6210563;28;20113;-78
2021/04/16 18:05:05;;;;;;;20.17;8.75;;;12.60;46.60;;;;;;6184981;28;20096;-79
2021/04/16 18:08:06;;;;;;;11.45;5.25;;;12.60;47.50;;;;;;6184444;28;20031;-79
2021/04/16 18:11:13;;;;;;;12.32;6.13;;;12.50;47.50;;;;;;6189161;28;20525;-78
2021/04/16 18:14:14;;;;;;;8.85;5.30;;;12.40;47.60;;;;;;6204579;28;20034;-77
2021/04/16 18:17:15;;;;;;;10.23;5.40;;;12.40;47.90;;;;;;6194309;28;20044;-78
2021/04/16 18:20:17;;;;;;;12.07;6.28;;;12.40;48.20;;;;;;6172054;28;20061;-78
2021/04/16 18:23:26;;;;;;;11.50;5.53;;;12.30;48.10;;;;;;6199867;28;20469;-78
2021/04/16 18:26:37;;;;;;;7.68;4.95;;;12.30;48.10;;;;;;6215819;28;20058;-78
2021/04/16 18:29:38;;;;;;;12.23;6.07;;;12.30;48.50;;;;;;6194545;28;20109;-78
2021/04/16 18:32:39;;;;;;;11.07;6.03;;;12.30;49.00;;;;;;6180447;28;20042;-79
2021/04/16 18:35:41;;;;;;;14.52;6.18;;;12.20;49.20;;;;;;6188387;28;20034;-80
2021/04/16 18:38:46;;;;;;;10.00;5.82;;;12.20;50.20;;;;;;6160487;28;20149;-79